createdAt,value
2022-08-09T00:02:42.796Z,8.45
2022-08-09T00:08:57.059Z,7.57
2022-08-09T00:15:06.527Z,7.68
2022-08-09T00:21:10.363Z,9.60
2022-08-09T00:27:18.127Z,8.60
2022-08-09T00:33:32.607Z,9.65
2022-08-09T00:40:12.392Z,8.13
2022-08-09T00:46:10.014Z,8.90
2022-08-09T00:52:17.727Z,12.55
2022-08-09T00:58:22.190Z,8.88
2022-08-09T01:04:35.988Z,10.07
2022-08-09T01:10:43.554Z,10.63
2022-08-09T01:16:50.119Z,12.18
2022-08-09T01:24:00.790Z,9.90
2022-08-09T01:29:55.247Z,10.55
2022-08-09T01:36:03.380Z,10.60
2022-08-09T01:42:11.076Z,12.07
2022-08-09T01:48:16.643Z,12.00
2022-08-09T01:54:21.798Z,11.30
2022-08-09T02:00:35.394Z,12.02
2022-08-09T02:06:59.275Z,13.48
2022-08-09T02:13:07.986Z,15.77
2022-08-09T02:19:13.121Z,16.70
2022-08-09T02:25:20.403Z,11.93
2022-08-09T02:31:26.064Z,12.55
2022-08-09T02:37:33.015Z,13.40
2022-08-09T02:43:55.018Z,12.07
2022-08-09T02:50:01.954Z,13.32
2022-08-09T02:56:06.289Z,15.32
2022-08-09T03:02:17.067Z,13.55
2022-08-09T03:08:20.985Z,12.90
2022-08-09T03:14:29.292Z,13.70
2022-08-09T03:20:34.496Z,13.40
2022-08-09T03:26:45.083Z,14.63
2022-08-09T03:32:51.129Z,16.20
2022-08-09T03:38:56.561Z,14.32
2022-08-09T03:44:59.968Z,12.32
2022-08-09T03:51:07.185Z,17.50
2022-08-09T03:57:32.487Z,18.13
2022-08-09T04:04:01.323Z,14.98
2022-08-09T04:10:05.935Z,14.88
2022-08-09T04:16:19.537Z,17.23
2022-08-09T04:22:24.760Z,41.88
2022-08-09T04:28:36.183Z,49.90
2022-08-09T04:34:47.714Z,33.80
2022-08-09T04:40:58.246Z,16.27
2022-08-09T04:47:04.295Z,12.30
2022-08-09T04:53:13.807Z,15.02
2022-08-09T04:59:17.348Z,14.93
2022-08-09T05:05:31.948Z,14.05
2022-08-09T05:11:49.344Z,15.63
2022-08-09T05:18:42.487Z,24.77
2022-08-09T05:24:16.725Z,35.53
2022-08-09T05:30:21.449Z,23.48
2022-08-09T05:36:28.980Z,17.65
2022-08-09T05:42:32.676Z,12.82
2022-08-09T05:48:38.313Z,9.38
2022-08-09T05:54:42.190Z,13.02
2022-08-09T06:00:45.578Z,11.40
2022-08-09T06:06:51.820Z,11.77
2022-08-09T06:13:03.005Z,10.70
2022-08-09T06:19:14.820Z,9.88
2022-08-09T06:25:21.259Z,7.18
2022-08-09T06:31:30.443Z,8.80
2022-08-09T06:37:53.321Z,8.02
2022-08-09T06:44:00.573Z,10.35
2022-08-09T06:50:14.442Z,10.40
2022-08-09T06:56:30.927Z,7.97
2022-08-09T07:02:36.830Z,8.30
2022-08-09T07:08:42.287Z,8.52
2022-08-09T07:14:51.502Z,9.63
2022-08-09T07:20:58.284Z,5.57
2022-08-09T07:27:02.440Z,5.90
2022-08-09T07:33:12.521Z,6.07
2022-08-09T07:39:40.398Z,6.85
2022-08-09T07:45:44.789Z,5.13
2022-08-09T07:52:05.358Z,8.45
2022-08-09T07:58:14.148Z,5.35
2022-08-09T08:04:17.791Z,4.00
2022-08-09T08:10:21.195Z,5.45
2022-08-09T08:16:32.519Z,3.55
2022-08-09T08:22:37.874Z,4.15
2022-08-09T08:28:41.726Z,3.40
2022-08-09T08:34:46.684Z,5.40
2022-08-09T08:40:56.690Z,2.47
2022-08-09T08:47:04.391Z,2.40
2022-08-09T08:53:15.834Z,3.85
2022-08-09T08:59:28.072Z,3.55
2022-08-09T09:05:58.655Z,2.45
2022-08-09T09:12:16.675Z,3.58
2022-08-09T09:18:20.776Z,5.07
2022-08-09T09:24:29.496Z,4.40
2022-08-09T09:30:41.165Z,4.60
2022-08-09T09:36:53.175Z,3.38
2022-08-09T09:42:58.692Z,2.10
2022-08-09T09:49:06.371Z,3.15
2022-08-09T09:55:28.708Z,2.80
2022-08-09T10:01:38.125Z,2.70
2022-08-09T10:08:01.083Z,2.78
2022-08-09T10:14:07.082Z,2.72
2022-08-09T10:20:27.606Z,2.83
2022-08-09T10:26:37.623Z,3.70
2022-08-09T10:32:42.753Z,1.92
2022-08-09T10:38:57.038Z,1.50
2022-08-09T10:45:10.672Z,2.42
2022-08-09T10:51:17.559Z,1.55
2022-08-09T10:57:23.383Z,1.98
2022-08-09T11:03:47.169Z,2.95
2022-08-09T11:09:53.410Z,1.77
2022-08-09T11:16:14.714Z,2.00
2022-08-09T11:22:57.358Z,1.42
2022-08-09T11:29:03.428Z,4.35
2022-08-09T11:35:08.659Z,3.08
2022-08-09T11:41:37.538Z,3.95
2022-08-09T11:47:47.861Z,4.18
2022-08-09T11:54:00.573Z,2.65
2022-08-09T12:00:15.854Z,1.00
2022-08-09T12:06:24.869Z,1.20
2022-08-09T12:12:46.249Z,2.67
2022-08-09T12:18:53.918Z,3.45
2022-08-09T12:31:30.998Z,2.05
2022-08-09T12:37:53.933Z,6.85
2022-08-09T12:44:05.746Z,1.85
2022-08-09T12:50:19.860Z,2.75
2022-08-09T12:56:43.788Z,2.95
2022-08-09T13:02:54.072Z,1.38
2022-08-09T13:09:06.280Z,9.80
2022-08-09T13:15:11.249Z,7.35
2022-08-09T13:22:37.824Z,7.75
2022-08-09T13:27:54.724Z,7.28
2022-08-09T13:33:58.948Z,6.18
2022-08-09T13:41:46.130Z,8.68
2022-08-09T13:47:16.190Z,4.95
2022-08-09T13:52:50.472Z,27.67
2022-08-09T13:58:54.542Z,6.50
2022-08-09T14:05:00.367Z,3.38
2022-08-09T14:11:03.990Z,6.78
2022-08-09T14:17:22.603Z,5.55
2022-08-09T14:23:54.140Z,10.93
2022-08-09T14:30:35.834Z,7.35
2022-08-09T14:36:20.725Z,4.57
2022-08-09T14:42:30.898Z,13.80
2022-08-09T14:48:36.060Z,7.75
2022-08-09T14:54:39.682Z,4.35
2022-08-09T15:00:48.008Z,10.38
2022-08-09T15:06:54.152Z,10.52
2022-08-09T15:12:58.660Z,7.70
2022-08-09T15:19:15.969Z,4.75
2022-08-09T15:25:21.970Z,9.10
2022-08-09T15:31:42.780Z,6.57
2022-08-09T15:37:57.233Z,7.47
2022-08-09T15:44:14.201Z,7.38
2022-08-09T15:50:23.106Z,6.55
2022-08-09T15:56:34.218Z,4.28
2022-08-09T16:02:37.616Z,5.68
2022-08-09T16:08:44.541Z,4.47
2022-08-09T16:14:54.560Z,7.47
2022-08-09T16:21:00.160Z,3.88
2022-08-09T16:27:05.126Z,5.60
2022-08-09T16:33:11.560Z,4.13
2022-08-09T16:39:15.539Z,5.47
2022-08-09T16:45:21.525Z,6.25
2022-08-09T16:51:26.744Z,3.70
2022-08-09T16:58:08.544Z,2.22
2022-08-09T17:03:54.830Z,7.80
2022-08-09T17:10:03.873Z,5.38
2022-08-09T17:16:07.997Z,5.60
2022-08-09T17:22:11.383Z,4.10
2022-08-09T17:28:16.229Z,2.97
2022-08-09T17:35:10.424Z,3.28
2022-08-09T17:40:47.254Z,4.78
2022-08-09T17:46:55.550Z,3.20
2022-08-09T17:52:59.491Z,3.80
2022-08-09T17:59:09.280Z,4.45
2022-08-09T18:05:16.661Z,3.17
2022-08-09T18:11:23.819Z,1.63
2022-08-09T18:18:03.365Z,2.75
2022-08-09T18:24:09.734Z,4.93
2022-08-09T18:30:39.573Z,3.25
2022-08-09T18:36:40.304Z,4.78
2022-08-09T18:42:51.361Z,5.28
2022-08-09T18:48:54.835Z,2.80
2022-08-09T18:55:05.457Z,2.88
2022-08-09T19:01:18.575Z,3.33
2022-08-09T19:07:22.620Z,4.55
2022-08-09T19:13:38.350Z,3.90
2022-08-09T19:19:51.149Z,2.40
2022-08-09T19:26:05.175Z,3.13
2022-08-09T19:32:09.327Z,4.57
2022-08-09T19:38:14.763Z,2.33
2022-08-09T19:44:20.080Z,3.60
2022-08-09T19:50:49.096Z,2.40
2022-08-09T19:56:50.744Z,2.60
2022-08-09T20:04:07.616Z,3.30
2022-08-09T20:09:43.791Z,5.63
2022-08-09T20:16:34.502Z,3.45
2022-08-09T20:22:09.854Z,4.35
2022-08-09T20:28:27.788Z,5.10
2022-08-09T20:34:39.267Z,4.07
2022-08-09T20:40:42.703Z,6.95
2022-08-09T20:46:52.581Z,3.42
2022-08-09T20:52:57.309Z,3.25
2022-08-09T20:59:00.709Z,3.53
2022-08-09T21:05:51.133Z,4.50
2022-08-09T21:18:23.980Z,9.23
2022-08-09T21:24:19.361Z,3.65
2022-08-09T21:30:33.440Z,7.80
2022-08-09T21:36:55.370Z,8.02
2022-08-09T21:42:59.426Z,4.93
2022-08-09T21:49:04.126Z,6.20
2022-08-09T21:55:11.316Z,9.13
2022-08-09T22:01:26.519Z,7.57
2022-08-09T22:07:52.973Z,5.57
2022-08-09T22:13:57.447Z,5.88
2022-08-09T22:20:02.474Z,4.85
2022-08-09T22:26:12.398Z,7.03
2022-08-09T22:32:30.195Z,6.18
2022-08-09T22:38:35.234Z,5.75
2022-08-09T22:44:45.628Z,5.72
2022-08-09T22:50:52.992Z,5.47
2022-08-09T22:56:58.699Z,7.47
2022-08-09T23:03:03.609Z,8.82
2022-08-09T23:09:16.239Z,5.68
2022-08-09T23:15:19.715Z,6.57
2022-08-09T23:21:31.307Z,6.03
2022-08-09T23:27:37.123Z,7.05
2022-08-09T23:34:00.466Z,7.68
2022-08-09T23:40:05.504Z,6.18
2022-08-09T23:46:09.021Z,7.10
2022-08-09T23:52:12.431Z,8.50
2022-08-09T23:58:25.750Z,6.97
